createdAt,value
2022-09-23T00:00:15.585Z,5.92
2022-09-23T00:01:04.362Z,6.07
2022-09-23T00:01:51.188Z,5.97
2022-09-23T00:02:38.257Z,6.00
2022-09-23T00:03:24.605Z,6.02
2022-09-23T00:04:10.945Z,5.89
2022-09-23T00:04:57.306Z,6.43
2022-09-23T00:05:43.972Z,6.38
2022-09-23T00:06:30.295Z,6.20
2022-09-23T00:07:17.127Z,5.63
2022-09-23T00:08:04.047Z,5.79
2022-09-23T00:08:51.094Z,5.63
2022-09-23T00:09:37.444Z,5.86
2022-09-23T00:10:25.422Z,5.85
2022-09-23T00:11:13.812Z,5.29
2022-09-23T00:12:00.700Z,5.49
2022-09-23T00:12:47.065Z,5.37
2022-09-23T00:13:33.685Z,5.54
2022-09-23T00:14:21.553Z,5.92
2022-09-23T00:15:08.250Z,5.49
2022-09-23T00:15:54.600Z,5.17
2022-09-23T00:16:40.953Z,5.06
2022-09-23T00:17:28.014Z,5.56
2022-09-23T00:18:14.380Z,5.66
2022-09-23T00:19:01.725Z,5.57
2022-09-23T00:19:48.243Z,5.27
2022-09-23T00:20:35.555Z,5.19
2022-09-23T00:21:22.915Z,5.46
2022-09-23T00:22:09.546Z,5.59
2022-09-23T00:22:57.684Z,5.23
2022-09-23T00:23:44.346Z,5.17
2022-09-23T00:24:32.528Z,5.46
2022-09-23T00:25:18.933Z,5.45
2022-09-23T00:26:05.978Z,5.36
2022-09-23T00:26:52.318Z,5.06
2022-09-23T00:27:38.932Z,5.05
2022-09-23T00:28:25.642Z,4.83
2022-09-23T00:29:11.927Z,5.26
2022-09-23T00:29:58.262Z,5.17
2022-09-23T00:30:44.685Z,5.43
2022-09-23T00:31:31.703Z,5.65
2022-09-23T00:32:17.987Z,5.50
2022-09-23T00:33:04.314Z,5.83
2022-09-23T00:33:54.810Z,5.53
2022-09-23T00:34:43.612Z,5.47
2022-09-23T00:35:29.909Z,5.42
2022-09-23T00:36:16.397Z,5.17
2022-09-23T00:37:02.917Z,5.25
2022-09-23T00:37:49.218Z,5.07
2022-09-23T00:38:35.526Z,5.49
2022-09-23T00:39:21.840Z,5.25
2022-09-23T00:40:08.631Z,4.53
2022-09-23T00:40:55.059Z,4.75
2022-09-23T00:41:41.502Z,4.93
2022-09-23T00:42:27.930Z,5.13
2022-09-23T00:43:15.026Z,4.79
2022-09-23T00:44:02.836Z,4.74
2022-09-23T00:44:52.024Z,4.97
2022-09-23T00:45:39.295Z,5.15
2022-09-23T00:46:37.089Z,5.40
2022-09-23T00:47:35.085Z,5.36
2022-09-23T00:48:21.845Z,4.79
2022-09-23T00:49:14.914Z,4.97
2022-09-23T00:50:12.948Z,5.18
2022-09-23T00:50:59.474Z,5.20
2022-09-23T00:51:54.277Z,5.15
2022-09-23T00:52:40.907Z,5.10
2022-09-23T00:53:28.394Z,4.89
2022-09-23T00:54:14.826Z,4.76
2022-09-23T00:55:04.482Z,5.13
2022-09-23T00:55:54.753Z,4.98
2022-09-23T00:56:41.149Z,5.07
2022-09-23T00:57:28.770Z,4.66
2022-09-23T00:58:19.956Z,4.63
2022-09-23T00:59:09.545Z,4.70
2022-09-23T00:59:56.162Z,5.09
2022-09-23T01:00:42.642Z,4.90
2022-09-23T01:01:29.962Z,4.93
2022-09-23T01:02:18.722Z,4.96
2022-09-23T01:03:06.957Z,5.09
2022-09-23T01:03:54.474Z,4.82
2022-09-23T01:04:41.347Z,4.59
2022-09-23T01:05:28.199Z,4.90
2022-09-23T01:06:14.558Z,5.22
2022-09-23T01:07:00.851Z,5.08
2022-09-23T01:07:48.142Z,4.93
2022-09-23T01:08:34.718Z,4.93
2022-09-23T01:09:23.602Z,5.14
2022-09-23T01:10:13.410Z,5.01
2022-09-23T01:11:09.448Z,4.97
2022-09-23T01:12:18.438Z,5.46
2022-09-23T01:13:23.158Z,5.13
2022-09-23T01:14:26.166Z,5.16
2022-09-23T01:15:15.618Z,5.41
2022-09-23T01:16:09.517Z,5.27
2022-09-23T01:17:05.523Z,4.66
2022-09-23T01:18:04.175Z,5.33
2022-09-23T01:18:53.555Z,5.42
2022-09-23T01:19:57.638Z,5.26
2022-09-23T01:20:53.149Z,5.34
2022-09-23T01:21:42.454Z,5.41
2022-09-23T01:22:34.669Z,5.03
2022-09-23T01:23:26.744Z,5.35
2022-09-23T01:24:31.867Z,5.39
2022-09-23T01:25:18.803Z,5.34
2022-09-23T01:26:26.157Z,5.13
2022-09-23T01:27:23.858Z,5.40
2022-09-23T01:28:13.024Z,5.60
2022-09-23T01:28:59.313Z,5.27
2022-09-23T01:30:04.454Z,5.49
2022-09-23T01:30:59.792Z,5.46
2022-09-23T01:31:56.105Z,5.50
2022-09-23T01:32:42.421Z,5.54
2022-09-23T01:33:28.804Z,5.21
2022-09-23T01:34:36.122Z,5.47
2022-09-23T01:35:25.660Z,5.76
2022-09-23T01:36:23.826Z,6.29
2022-09-23T01:37:10.281Z,6.21
2022-09-23T01:38:16.872Z,6.71
2022-09-23T01:39:09.547Z,6.13
2022-09-23T01:40:05.362Z,6.03
2022-09-23T01:41:12.397Z,6.64
2022-09-23T01:42:23.768Z,7.13
2022-09-23T01:43:16.279Z,7.71
2022-09-23T01:44:09.982Z,7.27
2022-09-23T01:45:08.877Z,7.92
2022-09-23T01:45:59.404Z,7.91
2022-09-23T01:47:10.818Z,7.84
2022-09-23T01:48:02.570Z,8.29
2022-09-23T01:49:07.578Z,8.72
2022-09-23T01:49:58.923Z,7.67
2022-09-23T01:50:57.630Z,7.64
2022-09-23T01:51:51.541Z,7.89
2022-09-23T01:52:42.067Z,7.53
2022-09-23T01:53:34.763Z,7.77
2022-09-23T01:54:38.444Z,7.75
2022-09-23T01:55:38.331Z,7.02
2022-09-23T01:56:31.529Z,7.05
2022-09-23T01:57:31.736Z,7.28
2022-09-23T01:58:27.038Z,7.53
2022-09-23T01:59:27.305Z,7.26
2022-09-23T02:00:16.375Z,7.28
2022-09-23T02:01:06.308Z,7.30
2022-09-23T02:02:00.959Z,7.25
2022-09-23T02:02:55.744Z,7.95
2022-09-23T02:03:47.913Z,8.23
2022-09-23T02:04:39.663Z,7.95
2022-09-23T02:05:34.086Z,7.62
2022-09-23T02:06:28.210Z,7.20
2022-09-23T02:07:40.871Z,7.00
2022-09-23T02:08:32.901Z,7.21
2022-09-23T02:09:25.503Z,7.53
2022-09-23T02:10:19.479Z,6.45
2022-09-23T02:11:11.035Z,6.72
2022-09-23T02:12:05.644Z,6.48
2022-09-23T02:12:57.175Z,5.58
2022-09-23T02:13:52.486Z,5.93
2022-09-23T02:14:43.951Z,6.10
2022-09-23T02:15:35.616Z,6.56
2022-09-23T02:16:28.798Z,6.00
2022-09-23T02:17:20.075Z,6.25
2022-09-23T02:18:16.219Z,6.13
2022-09-23T02:19:10.456Z,7.26
2022-09-23T02:20:03.101Z,6.30
2022-09-23T02:20:53.656Z,6.55
2022-09-23T02:21:42.595Z,6.64
2022-09-23T02:22:56.065Z,6.72
2022-09-23T02:23:45.207Z,7.06
2022-09-23T02:24:34.555Z,6.88
2022-09-23T02:25:26.278Z,6.59
2022-09-23T02:26:19.556Z,6.57
2022-09-23T02:27:18.422Z,6.89
2022-09-23T02:28:11.680Z,6.68
2022-09-23T02:29:00.765Z,6.42
2022-09-23T02:29:57.452Z,6.19
2022-09-23T02:30:49.952Z,5.98
2022-09-23T02:31:41.363Z,6.43
2022-09-23T02:32:34.539Z,6.05
2022-09-23T02:33:27.541Z,5.81
2022-09-23T02:34:19.638Z,6.61
2022-09-23T02:35:17.928Z,6.03
2022-09-23T02:36:14.017Z,5.56
2022-09-23T02:37:09.417Z,5.83
2022-09-23T02:38:07.698Z,5.53
2022-09-23T02:38:58.794Z,5.28
2022-09-23T02:39:56.748Z,5.82
2022-09-23T02:41:04.501Z,5.49
2022-09-23T02:42:01.126Z,5.99
2022-09-23T02:42:59.831Z,5.65
2022-09-23T02:43:51.841Z,5.72
2022-09-23T02:44:38.882Z,5.56
2022-09-23T02:45:27.035Z,5.73
2022-09-23T02:46:13.546Z,5.92
2022-09-23T02:47:00.795Z,5.60
2022-09-23T02:47:52.415Z,5.77
2022-09-23T02:48:47.147Z,6.08
2022-09-23T02:49:35.117Z,5.69
2022-09-23T02:50:22.667Z,5.75
2022-09-23T02:51:10.190Z,5.58
2022-09-23T02:51:59.950Z,5.90
2022-09-23T02:52:46.820Z,5.35
2022-09-23T02:53:33.838Z,5.45
2022-09-23T02:54:23.878Z,5.34
2022-09-23T02:55:11.993Z,5.75
2022-09-23T02:55:58.337Z,6.03
2022-09-23T02:56:44.813Z,6.37
2022-09-23T02:57:31.390Z,6.25
2022-09-23T02:58:17.996Z,6.44
2022-09-23T02:59:05.673Z,6.12
2022-09-23T02:59:52.456Z,5.98
2022-09-23T03:00:50.439Z,5.97
2022-09-23T03:01:56.218Z,5.94
2022-09-23T03:02:50.800Z,5.77
2022-09-23T03:03:54.105Z,5.64
2022-09-23T03:04:59.500Z,5.84
2022-09-23T03:05:52.927Z,5.60
2022-09-23T03:07:00.826Z,5.93
2022-09-23T03:08:06.011Z,5.56
2022-09-23T03:09:19.435Z,5.66
2022-09-23T03:10:13.695Z,5.46
2022-09-23T03:11:05.108Z,5.70
2022-09-23T03:11:59.771Z,5.20
2022-09-23T03:12:49.220Z,5.97
2022-09-23T03:13:54.906Z,5.59
2022-09-23T03:14:49.395Z,5.29
2022-09-23T03:15:47.353Z,5.35
2022-09-23T03:16:39.440Z,5.83
2022-09-23T03:17:34.164Z,5.50
2022-09-23T03:18:31.325Z,5.76
2022-09-23T03:19:36.496Z,5.63
2022-09-23T03:20:35.255Z,5.64
2022-09-23T03:21:40.062Z,5.54
2022-09-23T03:22:39.805Z,6.02
2022-09-23T03:23:29.418Z,5.86
2022-09-23T03:24:17.998Z,5.51
2022-09-23T03:25:09.444Z,5.51
2022-09-23T03:25:59.857Z,5.28
2022-09-23T03:26:47.689Z,5.61
2022-09-23T03:27:35.991Z,5.60
2022-09-23T03:28:25.342Z,5.67
2022-09-23T03:29:13.725Z,5.65
2022-09-23T03:30:01.037Z,5.60
2022-09-23T03:30:50.969Z,5.02
2022-09-23T03:31:42.375Z,5.70
2022-09-23T03:32:29.504Z,5.78
2022-09-23T03:33:17.740Z,5.56
2022-09-23T03:34:08.616Z,6.15
2022-09-23T03:34:57.106Z,5.43
2022-09-23T03:36:11.456Z,5.50
2022-09-23T03:37:07.399Z,5.80
2022-09-23T03:38:00.923Z,5.73
2022-09-23T03:38:52.695Z,5.46
2022-09-23T03:39:41.577Z,5.67
2022-09-23T03:40:31.399Z,5.35
2022-09-23T03:41:28.799Z,5.57
2022-09-23T03:42:19.673Z,5.68
2022-09-23T03:43:06.344Z,5.61
2022-09-23T03:43:53.419Z,5.67
2022-09-23T03:44:43.416Z,6.00
2022-09-23T03:45:32.772Z,6.18
2022-09-23T03:46:19.393Z,5.43
2022-09-23T03:47:06.357Z,5.61
2022-09-23T03:47:53.106Z,6.00
2022-09-23T03:48:40.643Z,6.36
2022-09-23T03:49:29.729Z,6.19
2022-09-23T03:50:17.254Z,6.03
2022-09-23T03:51:14.754Z,5.89
2022-09-23T03:52:02.379Z,5.94
2022-09-23T03:52:50.430Z,5.57
2022-09-23T03:53:37.017Z,5.46
2022-09-23T03:54:24.336Z,5.57
2022-09-23T03:55:11.484Z,5.68
2022-09-23T03:55:57.893Z,6.00
2022-09-23T03:56:44.220Z,5.85
2022-09-23T03:57:31.787Z,5.82
2022-09-23T03:58:18.143Z,5.74
2022-09-23T03:59:04.511Z,6.38
2022-09-23T03:59:51.524Z,6.03
2022-09-23T04:00:38.838Z,6.09
2022-09-23T04:01:29.640Z,6.79
2022-09-23T04:02:16.597Z,6.70
2022-09-23T04:03:04.546Z,7.52
2022-09-23T04:03:53.276Z,8.23
2022-09-23T04:04:41.013Z,9.14
2022-09-23T04:05:27.378Z,10.08
2022-09-23T04:06:13.835Z,10.81
2022-09-23T04:07:01.871Z,10.81
2022-09-23T04:07:49.081Z,10.60
2022-09-23T04:08:35.433Z,10.99
2022-09-23T04:09:22.300Z,10.99
2022-09-23T04:10:09.879Z,10.32
2022-09-23T04:11:02.603Z,10.21
2022-09-23T04:11:52.580Z,10.10
2022-09-23T04:12:38.894Z,8.96
2022-09-23T04:13:25.224Z,7.87
2022-09-23T04:14:12.092Z,7.34
2022-09-23T04:14:59.490Z,7.04
2022-09-23T04:15:45.957Z,6.92
2022-09-23T04:16:32.503Z,7.02
2022-09-23T04:17:18.948Z,6.93
2022-09-23T04:18:05.381Z,6.54
2022-09-23T04:18:52.086Z,6.55
2022-09-23T04:19:38.951Z,6.37
2022-09-23T04:20:29.609Z,6.20
2022-09-23T04:21:15.988Z,6.55
2022-09-23T04:22:02.718Z,6.33
2022-09-23T04:22:49.077Z,6.79
2022-09-23T04:23:35.492Z,6.90
2022-09-23T04:24:22.128Z,7.19
2022-09-23T04:25:08.722Z,7.05
2022-09-23T04:25:55.399Z,7.06
2022-09-23T04:26:42.504Z,6.71
2022-09-23T04:27:28.868Z,6.91
2022-09-23T04:28:15.278Z,6.78
2022-09-23T04:29:02.455Z,6.64
2022-09-23T04:29:49.032Z,6.55
2022-09-23T04:30:41.357Z,6.80
2022-09-23T04:31:28.615Z,6.18
2022-09-23T04:32:14.973Z,6.50
2022-09-23T04:33:01.333Z,6.28
2022-09-23T04:33:47.635Z,6.48
2022-09-23T04:34:34.161Z,6.60
2022-09-23T04:35:20.547Z,6.17
2022-09-23T04:36:07.082Z,6.76
2022-09-23T04:36:53.424Z,7.04
2022-09-23T04:37:39.822Z,7.34
2022-09-23T04:38:26.423Z,7.52
2022-09-23T04:39:14.833Z,7.52
2022-09-23T04:40:01.284Z,7.14
2022-09-23T04:40:48.845Z,7.00
2022-09-23T04:41:35.302Z,7.16
2022-09-23T04:42:21.728Z,6.96
2022-09-23T04:43:12.868Z,7.25
2022-09-23T04:43:59.959Z,7.15
2022-09-23T04:44:46.289Z,7.27
2022-09-23T04:45:32.625Z,7.23
2022-09-23T04:46:19.241Z,7.93
2022-09-23T04:47:05.721Z,7.53
2022-09-23T04:47:52.251Z,7.26
2022-09-23T04:48:39.699Z,7.49
2022-09-23T04:49:26.379Z,7.56
2022-09-23T04:50:12.740Z,8.01
2022-09-23T04:51:10.564Z,7.85
2022-09-23T04:51:56.937Z,7.05
2022-09-23T04:52:43.246Z,7.89
2022-09-23T04:53:29.801Z,7.56
2022-09-23T04:54:16.093Z,7.52
2022-09-23T04:55:02.706Z,7.14
2022-09-23T04:55:52.217Z,6.87
2022-09-23T04:56:39.602Z,7.51
2022-09-23T04:57:26.091Z,7.78
2022-09-23T04:58:12.401Z,7.96
2022-09-23T04:58:58.745Z,8.25
2022-09-23T04:59:45.190Z,8.27
2022-09-23T05:00:31.612Z,7.35
2022-09-23T05:01:19.043Z,8.11
2022-09-23T05:02:05.509Z,8.30
2022-09-23T05:02:51.859Z,8.31
2022-09-23T05:03:38.520Z,7.85
2022-09-23T05:04:24.865Z,7.77
2022-09-23T05:05:11.841Z,8.24
2022-09-23T05:05:59.791Z,8.07
2022-09-23T05:06:46.334Z,7.90
2022-09-23T05:07:32.898Z,7.82
2022-09-23T05:08:19.614Z,8.43
2022-09-23T05:09:07.450Z,8.66
2022-09-23T05:09:53.881Z,8.30
2022-09-23T05:10:40.192Z,7.70
2022-09-23T05:11:29.170Z,8.67
2022-09-23T05:12:15.540Z,8.86
2022-09-23T05:13:01.893Z,8.87
2022-09-23T05:13:49.075Z,8.49
2022-09-23T05:14:35.480Z,8.46
2022-09-23T05:15:21.795Z,8.56
2022-09-23T05:16:10.863Z,8.93
2022-09-23T05:16:57.259Z,8.90
2022-09-23T05:17:43.622Z,8.95
2022-09-23T05:18:34.196Z,9.40
2022-09-23T05:19:20.568Z,8.64
2022-09-23T05:20:07.534Z,9.01
2022-09-23T05:20:55.304Z,9.28
2022-09-23T05:21:42.036Z,9.34
2022-09-23T05:22:29.632Z,9.63
2022-09-23T05:23:16.318Z,9.57
2022-09-23T05:24:02.732Z,9.69
2022-09-23T05:24:49.029Z,9.88
2022-09-23T05:25:38.355Z,9.95
2022-09-23T05:26:26.494Z,10.25
2022-09-23T05:27:13.206Z,10.49
2022-09-23T05:27:59.518Z,10.10
2022-09-23T05:28:45.881Z,9.87
2022-09-23T05:29:32.427Z,10.13
2022-09-23T05:30:18.737Z,10.12
2022-09-23T05:31:06.922Z,9.80
2022-09-23T05:31:53.378Z,10.85
2022-09-23T05:32:39.754Z,10.52
2022-09-23T05:33:26.130Z,9.87
2022-09-23T05:34:12.464Z,10.20
2022-09-23T05:34:58.776Z,10.54
2022-09-23T05:35:48.644Z,10.54
2022-09-23T05:36:38.668Z,10.10
2022-09-23T05:37:25.581Z,10.39
2022-09-23T05:38:11.916Z,9.99
2022-09-23T05:38:58.546Z,10.52
2022-09-23T05:39:44.923Z,10.61
2022-09-23T05:40:31.441Z,11.61
2022-09-23T05:41:19.596Z,11.55
2022-09-23T05:42:06.135Z,11.45
2022-09-23T05:42:52.473Z,11.35
2022-09-23T05:43:38.871Z,11.09
2022-09-23T05:44:25.376Z,10.77
2022-09-23T05:45:11.699Z,11.45
2022-09-23T05:46:05.969Z,11.50
2022-09-23T05:46:54.562Z,11.33
2022-09-23T05:47:41.121Z,11.78
2022-09-23T05:48:27.444Z,11.52
2022-09-23T05:49:13.805Z,11.79
2022-09-23T05:50:00.863Z,12.27
2022-09-23T05:50:51.138Z,11.38
2022-09-23T05:51:37.519Z,11.35
2022-09-23T05:52:25.570Z,11.68
2022-09-23T05:53:12.079Z,11.42
2022-09-23T05:53:59.502Z,11.09
2022-09-23T05:54:45.865Z,11.23
2022-09-23T05:55:32.316Z,11.30
2022-09-23T05:56:20.792Z,11.20
2022-09-23T05:57:07.256Z,10.77
2022-09-23T05:57:53.660Z,11.07
2022-09-23T05:58:41.076Z,10.79
2022-09-23T05:59:27.413Z,10.94
2022-09-23T06:00:13.808Z,11.11
2022-09-23T06:01:11.061Z,11.04
2022-09-23T06:01:58.231Z,10.58
2022-09-23T06:02:44.613Z,11.50
2022-09-23T06:03:30.977Z,11.29
2022-09-23T06:04:17.721Z,11.35
2022-09-23T06:05:04.177Z,12.01
2022-09-23T06:05:54.294Z,12.35
2022-09-23T06:06:42.021Z,12.14
2022-09-23T06:07:28.421Z,12.69
2022-09-23T06:08:15.091Z,12.25
2022-09-23T06:09:01.607Z,11.89
2022-09-23T06:09:48.384Z,12.02
2022-09-23T06:10:38.400Z,11.58
2022-09-23T06:11:24.884Z,12.04
2022-09-23T06:12:11.323Z,11.47
2022-09-23T06:12:57.617Z,11.10
2022-09-23T06:13:44.215Z,10.95
2022-09-23T06:14:30.519Z,11.04
2022-09-23T06:15:17.347Z,11.06
2022-09-23T06:16:14.759Z,11.14
2022-09-23T06:17:02.927Z,11.00
2022-09-23T06:17:50.228Z,10.99
2022-09-23T06:18:39.121Z,10.53
2022-09-23T06:19:25.430Z,10.94
2022-09-23T06:20:11.778Z,10.95
2022-09-23T06:21:00.426Z,10.91
2022-09-23T06:21:48.563Z,10.67
2022-09-23T06:22:38.273Z,11.79
2022-09-23T06:23:26.717Z,11.82
2022-09-23T06:24:17.340Z,11.82
2022-09-23T06:25:05.483Z,11.92
2022-09-23T06:25:51.820Z,11.84
2022-09-23T06:26:38.561Z,12.51
2022-09-23T06:27:25.115Z,12.52
2022-09-23T06:28:12.378Z,13.03
2022-09-23T06:28:59.408Z,12.65
2022-09-23T06:29:46.277Z,12.26
2022-09-23T06:30:34.099Z,12.16
2022-09-23T06:31:20.559Z,12.22
2022-09-23T06:32:08.538Z,11.87
2022-09-23T06:32:56.291Z,11.70
2022-09-23T06:33:44.788Z,12.06
2022-09-23T06:34:36.187Z,11.35
2022-09-23T06:35:27.650Z,11.89
2022-09-23T06:36:27.612Z,11.71
2022-09-23T06:37:21.082Z,11.17
2022-09-23T06:38:07.459Z,11.71
2022-09-23T06:38:53.927Z,11.87
2022-09-23T06:39:40.708Z,12.46
2022-09-23T06:40:28.235Z,14.27
2022-09-23T06:41:14.804Z,13.28
2022-09-23T06:42:01.334Z,13.31
2022-09-23T06:42:51.615Z,14.97
2022-09-23T06:43:38.887Z,21.52
2022-09-23T06:44:25.310Z,24.44
2022-09-23T06:45:15.401Z,29.09
2022-09-23T06:46:03.838Z,50.81
2022-09-23T06:46:50.741Z,47.89
2022-09-23T06:47:38.584Z,47.86
2022-09-23T06:48:26.230Z,37.02
2022-09-23T06:49:13.153Z,24.87
2022-09-23T06:49:59.698Z,19.82
2022-09-23T06:50:46.096Z,17.72
2022-09-23T06:51:32.474Z,17.12
2022-09-23T06:52:21.037Z,14.52
2022-09-23T06:53:07.485Z,13.03
2022-09-23T06:53:53.871Z,11.96
2022-09-23T06:54:40.231Z,11.15
2022-09-23T06:55:27.876Z,10.51
2022-09-23T06:56:15.450Z,9.84
2022-09-23T06:57:01.805Z,9.61
2022-09-23T06:57:48.600Z,9.95
2022-09-23T06:58:36.191Z,9.89
2022-09-23T06:59:22.509Z,10.22
2022-09-23T07:00:09.106Z,10.46
2022-09-23T07:01:01.158Z,11.27
2022-09-23T07:01:48.209Z,11.76
2022-09-23T07:02:35.347Z,10.58
2022-09-23T07:03:22.141Z,10.15
2022-09-23T07:04:09.527Z,11.10
2022-09-23T07:04:57.295Z,11.05
2022-09-23T07:05:43.614Z,10.61
2022-09-23T07:06:29.919Z,9.73
2022-09-23T07:07:16.325Z,10.17
2022-09-23T07:08:03.260Z,10.41
2022-09-23T07:08:51.282Z,9.65
2022-09-23T07:09:38.399Z,10.55
2022-09-23T07:10:24.924Z,10.55
2022-09-23T07:11:12.996Z,10.93
2022-09-23T07:11:59.517Z,11.84
2022-09-23T07:12:45.870Z,11.28
2022-09-23T07:13:33.391Z,10.06
2022-09-23T07:14:19.718Z,10.19
2022-09-23T07:15:06.440Z,10.23
2022-09-23T07:15:54.829Z,10.33
2022-09-23T07:16:41.696Z,10.35
2022-09-23T07:17:28.160Z,9.66
2022-09-23T07:18:14.574Z,9.66
2022-09-23T07:19:00.940Z,9.89
2022-09-23T07:19:47.338Z,10.39
2022-09-23T07:20:33.683Z,10.02
2022-09-23T07:21:20.362Z,9.65
2022-09-23T07:22:06.901Z,9.00
2022-09-23T07:22:53.221Z,8.85
2022-09-23T07:23:39.814Z,8.86
2022-09-23T07:24:26.130Z,8.47
2022-09-23T07:25:12.491Z,8.25
2022-09-23T07:25:58.884Z,8.62
2022-09-23T07:26:45.860Z,8.57
2022-09-23T07:27:33.174Z,8.33
2022-09-23T07:28:19.729Z,8.12
2022-09-23T07:29:06.539Z,7.35
2022-09-23T07:29:54.754Z,7.61
2022-09-23T07:30:54.132Z,7.37
2022-09-23T07:31:45.131Z,7.73
2022-09-23T07:32:43.242Z,7.53
2022-09-23T07:33:34.491Z,6.80
2022-09-23T07:34:20.856Z,6.74
2022-09-23T07:35:08.353Z,6.72
2022-09-23T07:35:54.655Z,6.22
2022-09-23T07:36:41.356Z,6.21
2022-09-23T07:37:27.981Z,5.90
2022-09-23T07:38:14.304Z,5.48
2022-09-23T07:39:03.634Z,5.41
2022-09-23T07:39:51.693Z,5.50
2022-09-23T07:40:39.468Z,5.67
2022-09-23T07:41:28.817Z,5.39
2022-09-23T07:42:15.675Z,5.55
2022-09-23T07:43:05.320Z,4.93
2022-09-23T07:43:56.877Z,5.39
2022-09-23T07:44:45.166Z,5.37
2022-09-23T07:45:33.152Z,4.91
2022-09-23T07:46:19.672Z,4.68
2022-09-23T07:47:06.180Z,4.69
2022-09-23T07:47:55.267Z,4.85
2022-09-23T07:48:42.484Z,4.33
2022-09-23T07:49:29.476Z,4.35
2022-09-23T07:50:15.865Z,4.89
2022-09-23T07:51:10.226Z,4.50
2022-09-23T07:51:56.573Z,4.58
2022-09-23T07:52:43.165Z,4.79
2022-09-23T07:53:32.021Z,4.39
2022-09-23T07:54:19.615Z,4.71
2022-09-23T07:55:07.146Z,4.35
2022-09-23T07:55:55.065Z,4.52
2022-09-23T07:56:42.134Z,4.34
2022-09-23T07:57:28.476Z,4.28
2022-09-23T07:58:14.791Z,4.25
2022-09-23T07:59:02.061Z,4.52
2022-09-23T07:59:48.412Z,4.50
2022-09-23T08:00:36.099Z,4.13
2022-09-23T08:01:24.015Z,4.32
2022-09-23T08:02:11.317Z,4.25
2022-09-23T08:02:57.737Z,4.39
2022-09-23T08:03:45.293Z,4.20
2022-09-23T08:04:33.040Z,3.82
2022-09-23T08:05:19.359Z,4.30
2022-09-23T08:06:10.543Z,4.56
2022-09-23T08:07:01.660Z,3.96
2022-09-23T08:07:49.377Z,4.07
2022-09-23T08:08:39.298Z,4.00
2022-09-23T08:09:29.126Z,4.03
2022-09-23T08:10:18.983Z,3.76
2022-09-23T08:11:06.811Z,3.95
2022-09-23T08:11:54.736Z,3.69
2022-09-23T08:12:41.109Z,3.72
2022-09-23T08:13:28.507Z,3.92
2022-09-23T08:14:15.590Z,3.85
2022-09-23T08:15:02.427Z,4.11
2022-09-23T08:15:53.273Z,4.36
2022-09-23T08:16:44.706Z,4.34
2022-09-23T08:17:31.249Z,4.24
2022-09-23T08:18:17.774Z,4.04
2022-09-23T08:19:51.645Z,3.91
2022-09-23T08:20:47.887Z,3.83
2022-09-23T08:21:34.663Z,3.75
2022-09-23T08:22:23.412Z,3.72
2022-09-23T08:23:10.323Z,3.84
2022-09-23T08:23:56.850Z,3.70
2022-09-23T08:24:43.187Z,3.88
2022-09-23T08:25:32.411Z,3.82
2022-09-23T08:26:22.296Z,3.80
2022-09-23T08:27:10.709Z,4.12
2022-09-23T08:27:57.120Z,3.73
2022-09-23T08:28:44.254Z,4.17
2022-09-23T08:29:30.592Z,3.93
2022-09-23T08:30:16.936Z,4.30
2022-09-23T08:31:05.416Z,4.12
2022-09-23T08:31:51.973Z,3.99
2022-09-23T08:32:38.490Z,3.79
2022-09-23T08:33:24.830Z,4.29
2022-09-23T08:34:11.933Z,3.85
2022-09-23T08:34:58.230Z,4.12
2022-09-23T08:35:44.560Z,3.84
2022-09-23T08:36:31.432Z,4.10
2022-09-23T08:37:17.807Z,4.16
2022-09-23T08:38:04.151Z,4.01
2022-09-23T08:38:50.953Z,3.82
2022-09-23T08:39:37.292Z,3.75
2022-09-23T08:40:24.538Z,3.77
2022-09-23T08:41:17.879Z,3.93
2022-09-23T08:42:04.224Z,3.89
2022-09-23T08:42:50.554Z,3.61
2022-09-23T08:43:37.274Z,3.95
2022-09-23T08:44:27.852Z,3.57
2022-09-23T08:45:19.537Z,3.48
2022-09-23T08:46:11.107Z,3.77
2022-09-23T08:47:11.222Z,3.82
2022-09-23T08:48:09.594Z,4.24
2022-09-23T08:49:00.923Z,3.89
2022-09-23T08:50:16.867Z,3.74
2022-09-23T08:51:07.491Z,4.02
2022-09-23T08:51:55.952Z,3.74
2022-09-23T08:52:53.310Z,3.79
2022-09-23T08:53:41.749Z,3.53
2022-09-23T08:54:31.064Z,3.59
2022-09-23T08:55:17.490Z,3.77
2022-09-23T08:56:12.635Z,3.59
2022-09-23T08:57:02.510Z,3.46
2022-09-23T08:58:24.537Z,3.80
2022-09-23T08:59:28.702Z,3.83
2022-09-23T09:00:20.045Z,3.80
2022-09-23T09:01:14.339Z,4.24
2022-09-23T09:02:06.045Z,4.24
2022-09-23T09:02:54.032Z,4.07
2022-09-23T09:03:45.278Z,4.21
2022-09-23T09:04:37.537Z,3.94
2022-09-23T09:05:27.425Z,3.47
2022-09-23T09:06:26.343Z,3.39
2022-09-23T09:08:29.644Z,3.79
2022-09-23T09:09:25.220Z,3.66
2022-09-23T09:10:18.834Z,3.82
2022-09-23T09:11:06.897Z,4.35
2022-09-23T09:11:58.823Z,4.18
2022-09-23T09:13:00.091Z,3.57
2022-09-23T09:13:57.700Z,3.73
2022-09-23T09:15:02.585Z,4.02
2022-09-23T09:16:10.590Z,3.72
2022-09-23T09:17:02.034Z,3.74
2022-09-23T09:18:07.654Z,3.73
2022-09-23T09:18:56.030Z,3.91
2022-09-23T09:20:04.957Z,3.97
2022-09-23T09:20:59.019Z,4.15
2022-09-23T09:21:47.790Z,3.27
2022-09-23T09:22:54.055Z,3.60
2022-09-23T09:23:45.736Z,3.72
2022-09-23T09:24:34.708Z,3.90
2022-09-23T09:25:24.247Z,3.98
2022-09-23T09:26:20.824Z,3.67
2022-09-23T09:27:12.451Z,3.50
2022-09-23T09:28:00.151Z,3.47
2022-09-23T09:28:51.085Z,3.49
2022-09-23T09:29:41.017Z,3.60
2022-09-23T09:30:28.469Z,3.70
2022-09-23T09:31:30.348Z,3.52
2022-09-23T09:32:16.780Z,3.27
2022-09-23T09:33:06.718Z,3.24
2022-09-23T09:33:58.047Z,3.26
2022-09-23T09:34:49.653Z,3.46
2022-09-23T09:35:39.559Z,3.50
2022-09-23T09:36:30.916Z,3.07
2022-09-23T09:37:27.317Z,3.62
2022-09-23T09:38:13.804Z,3.71
2022-09-23T09:39:00.257Z,3.82
2022-09-23T09:39:46.626Z,3.87
2022-09-23T09:40:35.263Z,3.12
2022-09-23T09:41:24.530Z,3.45
2022-09-23T09:42:18.639Z,3.50
2022-09-23T09:43:07.500Z,3.02
2022-09-23T09:43:57.544Z,3.34
2022-09-23T09:44:50.642Z,3.58
2022-09-23T09:45:39.937Z,3.20
2022-09-23T09:46:46.443Z,2.99
2022-09-23T09:47:39.047Z,3.22
2022-09-23T09:48:33.005Z,3.36
2022-09-23T09:49:23.153Z,3.52
2022-09-23T09:50:11.669Z,3.26
2022-09-23T09:51:18.465Z,2.98
2022-09-23T09:52:12.813Z,3.23
2022-09-23T09:53:14.603Z,3.09
2022-09-23T09:54:23.352Z,3.32
2022-09-23T09:55:12.652Z,2.69
2022-09-23T09:56:07.335Z,2.90
2022-09-23T09:56:54.520Z,2.92
2022-09-23T09:57:54.776Z,3.07
2022-09-23T09:58:47.184Z,3.06
2022-09-23T09:59:34.485Z,3.16
2022-09-23T10:00:27.591Z,3.23
2022-09-23T10:01:20.151Z,3.40
2022-09-23T10:02:28.487Z,2.82
2022-09-23T10:03:14.840Z,2.93
2022-09-23T10:04:03.662Z,2.94
2022-09-23T10:04:58.910Z,2.89
2022-09-23T10:05:45.322Z,2.86
2022-09-23T10:06:33.455Z,2.77
2022-09-23T10:07:24.856Z,2.97
2022-09-23T10:08:40.824Z,3.08
2022-09-23T10:09:32.748Z,2.74
2022-09-23T10:10:33.501Z,3.16
2022-09-23T10:11:20.255Z,2.53
2022-09-23T10:12:19.435Z,2.63
2022-09-23T10:13:15.019Z,2.98
2022-09-23T10:14:05.122Z,3.43
2022-09-23T10:14:55.839Z,3.45
2022-09-23T10:15:45.190Z,3.40
2022-09-23T10:16:37.113Z,2.90
2022-09-23T10:17:28.555Z,3.17
2022-09-23T10:18:19.866Z,2.97
2022-09-23T10:19:17.364Z,3.27
2022-09-23T10:20:08.261Z,3.01
2022-09-23T10:21:01.368Z,3.04
2022-09-23T10:21:52.452Z,2.86
2022-09-23T10:22:42.434Z,3.16
2022-09-23T10:23:33.178Z,3.02
2022-09-23T10:24:23.380Z,2.50
2022-09-23T10:25:16.799Z,3.33
2022-09-23T10:26:06.157Z,3.78
2022-09-23T10:26:56.326Z,3.04
2022-09-23T10:27:45.444Z,3.23
2022-09-23T10:28:37.826Z,2.88
2022-09-23T10:29:29.178Z,2.66
2022-09-23T10:30:23.965Z,2.86
2022-09-23T10:31:25.144Z,2.76
2022-09-23T10:32:20.607Z,2.77
2022-09-23T10:33:26.150Z,2.67
2022-09-23T10:34:28.526Z,2.69
2022-09-23T10:35:17.549Z,2.75
2022-09-23T10:36:04.211Z,2.63
2022-09-23T10:37:08.522Z,2.71
2022-09-23T10:37:56.529Z,2.43
2022-09-23T10:38:43.473Z,2.88
2022-09-23T10:39:48.579Z,2.60
2022-09-23T10:40:53.757Z,2.69
2022-09-23T10:42:05.552Z,2.58
2022-09-23T10:43:16.421Z,2.93
2022-09-23T10:44:47.716Z,2.71
2022-09-23T10:45:57.230Z,2.40
2022-09-23T10:46:48.438Z,2.65
2022-09-23T10:47:50.136Z,2.79
2022-09-23T10:48:55.306Z,2.67
2022-09-23T10:50:04.747Z,2.53
2022-09-23T10:50:55.896Z,2.75
2022-09-23T10:51:42.236Z,2.71
2022-09-23T10:52:48.772Z,2.28
2022-09-23T10:53:55.167Z,2.51
2022-09-23T10:55:04.616Z,2.48
2022-09-23T10:56:00.050Z,2.21
2022-09-23T10:56:51.490Z,2.84
2022-09-23T10:57:38.030Z,2.79
2022-09-23T10:58:30.409Z,2.36
2022-09-23T10:59:36.660Z,2.71
2022-09-23T11:00:53.186Z,2.24
2022-09-23T11:02:02.002Z,2.32
2022-09-23T11:03:10.653Z,2.59
2022-09-23T11:04:06.187Z,3.24
2022-09-23T11:05:11.877Z,2.42
2022-09-23T11:06:11.425Z,2.27
2022-09-23T11:07:07.891Z,2.28
2022-09-23T11:08:03.387Z,2.04
2022-09-23T11:09:15.152Z,2.55
2022-09-23T11:10:02.885Z,2.59
2022-09-23T11:10:58.313Z,4.48
2022-09-23T11:11:54.954Z,3.48